Pagina principale
METAR-TAF:

METAR-TAF

Aeroporti :

Payerne, Svizzera

latitudine: 46-49N, longitudine: 006-57E, altezza: 490 m

Osservazione

Il bollettino è stato emesso 39 minuti fa, alle 15:20 UTC
Vento 7 kt da nord-est, variando fra nord e est
Temperature 22°C
Umidità 38%
Pressione 1016 hPa
Visibilità 10 km o più

METAR: LSMP 311520Z AUTO 05007KT 350V100 9999NDV NCD 22/07 Q1016 RMK

Ora: 17:59 (15:59 UTC)


TAF: mancante

Osservazioni e previsioni meteorologiche di più di 4000 aeroporti (messaggi METAR e TAF).

Le stazioni disponibili sono rappresentate dai dischi gialli e rossi sulla carta.

Puntare il mouse per vedere il nome della stazione.

Clicca sopra per visualizzare le osservazioni e previsioni meteorologiche.

Per cambiare la mappa : fare clic sui pulsanti verdi con una croce nera per ingrandire, il pulsante verde con un trattino per diminuire, o sulla freccia verde per le mappe adiacenti.


METAR-TAF: